Time;durP1;ratioP1;P1;durP2;ratioP2;P2;SDS_P1;SDS_P2;PMS_P1;PMS_P2;Temp;Humidity;BMP_temperature;BMP_pressure;BME280_temperature;BME280_humidity;BME280_pressure;Samples;Min_cycle;Max_cycle;Signal;HPM_P1;HPM_P2
2023/12/12 00:01:20;;;;;;;5.45;3.08;;;;;;;;;;5067474;28;20287;-69
2023/12/12 00:03:47;;;;;;;6.13;3.05;;;;;;;;;;5066098;28;20319;-69
2023/12/12 00:06:15;;;;;;;4.90;2.80;;;;;;;;;;5067309;28;20224;-69
2023/12/12 00:08:41;;;;;;;5.60;2.70;;;;;;;;;;5078983;28;20224;-68
2023/12/12 00:11:07;;;;;;;7.07;3.50;;;;;;;;;;5079356;28;20208;-69
2023/12/12 00:13:33;;;;;;;5.07;3.05;;;;;;;;;;5076496;28;20212;-69
2023/12/12 00:15:59;;;;;;;4.25;2.50;;;;;;;;;;5080051;28;20598;-69
2023/12/12 00:18:26;;;;;;;5.00;2.40;;;;;;;;;;5081791;28;20623;-68
2023/12/12 00:20:52;;;;;;;4.40;2.63;;;;;;;;;;5084720;28;20289;-68
2023/12/12 00:23:19;;;;;;;3.67;2.20;;;;;;;;;;5081829;28;20628;-68
2023/12/12 00:25:46;;;;;;;5.20;2.65;;;;;;;;;;5078457;28;20228;-69
2023/12/12 00:28:12;;;;;;;4.28;2.40;;;;;;;;;;5077969;28;20227;-68
2023/12/12 00:30:38;;;;;;;3.45;2.20;;;;;;;;;;5081592;28;20204;-67
2023/12/12 00:33:04;;;;;;;4.28;2.25;;;;;;;;;;5082007;28;20211;-68
2023/12/12 00:35:31;;;;;;;4.88;2.15;;;;;;;;;;5081163;28;20223;-68
2023/12/12 00:37:57;;;;;;;4.53;2.13;;;;;;;;;;5080209;28;20204;-67
2023/12/12 00:40:24;;;;;;;5.93;2.25;;;;;;;;;;5080867;28;20204;-67
2023/12/12 00:42:51;;;;;;;6.07;2.63;;;;;;;;;;5083114;28;20200;-68
2023/12/12 00:45:18;;;;;;;3.42;2.20;;;;;;;;;;5083516;28;20216;-67
2023/12/12 00:47:44;;;;;;;3.08;1.85;;;;;;;;;;5078989;28;20296;-67
2023/12/12 00:50:11;;;;;;;4.80;1.92;;;;;;;;;;5077592;28;20230;-68
2023/12/12 00:52:37;;;;;;;6.03;2.13;;;;;;;;;;5080535;28;20572;-68
2023/12/12 00:55:04;;;;;;;3.90;2.17;;;;;;;;;;5081505;28;20216;-68
2023/12/12 00:57:31;;;;;;;5.72;2.03;;;;;;;;;;5079633;28;20203;-68
2023/12/12 00:59:58;;;;;;;4.22;1.90;;;;;;;;;;5077640;28;20201;-68
2023/12/12 01:02:24;;;;;;;9.25;2.20;;;;;;;;;;5079597;28;20271;-67
2023/12/12 01:04:50;;;;;;;3.90;1.73;;;;;;;;;;5083875;28;20225;-68
2023/12/12 01:07:17;;;;;;;4.95;1.88;;;;;;;;;;5083937;28;20199;-68
2023/12/12 01:09:43;;;;;;;4.60;1.80;;;;;;;;;;5075848;28;20204;-67
2023/12/12 01:12:09;;;;;;;7.63;1.80;;;;;;;;;;5083801;28;20519;-69
2023/12/12 01:14:37;;;;;;;7.43;2.28;;;;;;;;;;5081182;28;20467;-67
2023/12/12 01:17:03;;;;;;;7.05;2.20;;;;;;;;;;5080341;28;20730;-67
2023/12/12 01:19:29;;;;;;;7.07;2.47;;;;;;;;;;5081403;28;20287;-67
2023/12/12 01:21:56;;;;;;;7.70;2.08;;;;;;;;;;5083701;28;20203;-67
2023/12/12 01:24:22;;;;;;;7.68;2.20;;;;;;;;;;5083095;28;20204;-68
2023/12/12 01:26:48;;;;;;;8.63;3.20;;;;;;;;;;5080339;28;20622;-68
2023/12/12 01:29:16;;;;;;;7.10;2.67;;;;;;;;;;5087666;28;20220;-68
2023/12/12 01:31:43;;;;;;;5.00;3.08;;;;;;;;;;5080063;28;20208;-68
2023/12/12 01:34:10;;;;;;;7.60;3.08;;;;;;;;;;5080121;28;20211;-68
2023/12/12 01:36:36;;;;;;;6.90;2.88;;;;;;;;;;5081926;28;20221;-68
2023/12/12 01:39:03;;;;;;;6.05;2.55;;;;;;;;;;5083363;28;20187;-68
2023/12/12 01:41:29;;;;;;;9.23;3.05;;;;;;;;;;5082037;28;20283;-68
2023/12/12 01:43:55;;;;;;;7.07;2.97;;;;;;;;;;5079931;28;20246;-68
2023/12/12 01:46:21;;;;;;;8.10;2.85;;;;;;;;;;5079682;28;20228;-69
2023/12/12 01:48:49;;;;;;;7.40;2.55;;;;;;;;;;5083471;28;20207;-68
2023/12/12 01:51:16;;;;;;;7.88;2.50;;;;;;;;;;5083773;28;20192;-68
2023/12/12 01:53:45;;;;;;;8.63;2.88;;;;;;;;;;5080623;28;20197;-68
2023/12/12 01:56:11;;;;;;;7.25;2.60;;;;;;;;;;5080066;28;20220;-68
2023/12/12 01:58:38;;;;;;;6.85;2.60;;;;;;;;;;5095776;28;20193;-68
2023/12/12 02:01:05;;;;;;;3.35;2.55;;;;;;;;;;5101613;28;20196;-68
2023/12/12 02:03:35;;;;;;;5.07;2.83;;;;;;;;;;5095230;28;20603;-68
2023/12/12 02:06:04;;;;;;;12.32;3.47;;;;;;;;;;5083794;28;20216;-68
2023/12/12 02:08:30;;;;;;;7.50;3.60;;;;;;;;;;5091939;28;20268;-68
2023/12/12 02:10:57;;;;;;;10.57;4.38;;;;;;;;;;5083632;28;20242;-68
2023/12/12 02:13:23;;;;;;;10.43;4.07;;;;;;;;;;5083335;28;20220;-68
2023/12/12 02:15:49;;;;;;;8.07;4.20;;;;;;;;;;5075482;28;20639;-67
2023/12/12 02:18:16;;;;;;;11.45;4.28;;;;;;;;;;5083699;28;20197;-68
2023/12/12 02:20:42;;;;;;;8.73;3.97;;;;;;;;;;5085923;28;20212;-68
2023/12/12 02:23:09;;;;;;;6.55;3.55;;;;;;;;;;5086906;28;20257;-68
2023/12/12 02:25:36;;;;;;;8.20;3.67;;;;;;;;;;5084981;28;20223;-68
2023/12/12 02:28:03;;;;;;;8.15;3.80;;;;;;;;;;5083551;28;20213;-68
2023/12/12 02:30:29;;;;;;;7.40;3.75;;;;;;;;;;5083814;28;20257;-68
2023/12/12 02:32:56;;;;;;;5.40;3.05;;;;;;;;;;5086858;28;20196;-68
2023/12/12 02:35:22;;;;;;;12.00;4.05;;;;;;;;;;5086683;28;20226;-68
2023/12/12 02:37:48;;;;;;;6.47;3.30;;;;;;;;;;5083911;28;20197;-68
2023/12/12 02:40:16;;;;;;;6.70;3.10;;;;;;;;;;5083457;28;20197;-68
2023/12/12 02:42:45;;;;;;;7.53;3.20;;;;;;;;;;5085519;28;20250;-68
2023/12/12 02:45:11;;;;;;;8.38;3.42;;;;;;;;;;5086355;28;20696;-68
2023/12/12 02:47:38;;;;;;;7.85;3.10;;;;;;;;;;5085061;28;20196;-68
2023/12/12 02:50:04;;;;;;;5.03;3.45;;;;;;;;;;5082986;28;20193;-68
2023/12/12 02:52:30;;;;;;;11.63;3.83;;;;;;;;;;5083051;28;20250;-68
2023/12/12 02:54:57;;;;;;;7.65;3.47;;;;;;;;;;5086763;28;20239;-68
2023/12/12 02:57:24;;;;;;;9.65;3.45;;;;;;;;;;5086535;28;20192;-68
2023/12/12 02:59:50;;;;;;;7.15;3.58;;;;;;;;;;5083005;28;20237;-68
2023/12/12 03:02:17;;;;;;;5.90;3.63;;;;;;;;;;5082622;28;20200;-68
2023/12/12 03:04:44;;;;;;;7.97;3.60;;;;;;;;;;5084408;28;20712;-68
2023/12/12 03:07:10;;;;;;;7.85;4.13;;;;;;;;;;5080363;28;20287;-68
2023/12/12 03:09:36;;;;;;;9.27;4.15;;;;;;;;;;5083442;28;20223;-68
2023/12/12 03:12:03;;;;;;;5.65;3.70;;;;;;;;;;5086284;28;20203;-68
2023/12/12 03:14:30;;;;;;;6.80;3.58;;;;;;;;;;5085836;28;20203;-68
2023/12/12 03:16:57;;;;;;;7.00;3.25;;;;;;;;;;5086329;28;20257;-68
2023/12/12 03:19:23;;;;;;;6.43;3.83;;;;;;;;;;5086325;28;20192;-68
2023/12/12 03:21:49;;;;;;;10.15;3.90;;;;;;;;;;5082943;28;20660;-68
2023/12/12 03:24:16;;;;;;;7.18;3.47;;;;;;;;;;5082636;28;21257;-68
2023/12/12 03:26:43;;;;;;;5.55;3.30;;;;;;;;;;5083646;28;20716;-68
2023/12/12 03:29:09;;;;;;;5.22;2.33;;;;;;;;;;5085893;28;20630;-68
2023/12/12 03:31:36;;;;;;;4.82;2.40;;;;;;;;;;5077213;28;20204;-68
2023/12/12 03:34:03;;;;;;;6.78;2.70;;;;;;;;;;5081385;28;20200;-68
2023/12/12 03:36:29;;;;;;;6.78;2.78;;;;;;;;;;5081614;28;20215;-68
2023/12/12 03:38:55;;;;;;;5.05;2.30;;;;;;;;;;5082263;28;20488;-68
2023/12/12 03:41:22;;;;;;;9.07;3.40;;;;;;;;;;5082250;28;20691;-68
2023/12/12 03:43:49;;;;;;;8.82;3.00;;;;;;;;;;5084015;28;20197;-68
2023/12/12 03:46:16;;;;;;;7.78;3.20;;;;;;;;;;5085503;28;20284;-68
2023/12/12 03:48:43;;;;;;;6.28;2.95;;;;;;;;;;5083675;28;20216;-68
2023/12/12 03:51:10;;;;;;;5.95;2.92;;;;;;;;;;5081574;28;20204;-68
2023/12/12 03:53:36;;;;;;;8.48;3.30;;;;;;;;;;5081972;28;20230;-68
2023/12/12 03:56:03;;;;;;;5.35;2.63;;;;;;;;;;5085098;28;20216;-68
2023/12/12 03:58:29;;;;;;;6.97;3.15;;;;;;;;;;5085052;28;20618;-68
2023/12/12 04:00:55;;;;;;;7.93;2.92;;;;;;;;;;5081842;28;20196;-68
2023/12/12 04:03:22;;;;;;;7.85;3.15;;;;;;;;;;5081632;28;20211;-67
2023/12/12 04:05:49;;;;;;;6.32;3.25;;;;;;;;;;5083141;28;20231;-67
2023/12/12 04:08:15;;;;;;;6.65;3.40;;;;;;;;;;5085036;28;20647;-68
2023/12/12 04:10:42;;;;;;;7.72;3.70;;;;;;;;;;5084023;28;20219;-68
2023/12/12 04:13:08;;;;;;;6.43;3.55;;;;;;;;;;5081400;28;20209;-68
2023/12/12 04:15:34;;;;;;;11.10;3.78;;;;;;;;;;5081331;28;20220;-68
2023/12/12 04:18:01;;;;;;;7.07;3.28;;;;;;;;;;5073166;28;20192;-68
2023/12/12 04:20:27;;;;;;;7.40;3.15;;;;;;;;;;5080972;28;20197;-68
2023/12/12 04:22:54;;;;;;;10.57;3.63;;;;;;;;;;5083469;28;20254;-68
2023/12/12 04:25:21;;;;;;;7.35;3.70;;;;;;;;;;5083939;28;20227;-68
2023/12/12 04:27:47;;;;;;;9.70;4.05;;;;;;;;;;5083095;28;20249;-68
2023/12/12 04:30:13;;;;;;;7.50;3.60;;;;;;;;;;5080547;28;20588;-68
2023/12/12 04:32:39;;;;;;;7.32;5.55;;;;;;;;;;5089039;28;20276;-68
2023/12/12 04:35:08;;;;;;;8.52;4.10;;;;;;;;;;5080877;28;20216;-68
2023/12/12 04:37:34;;;;;;;12.65;4.07;;;;;;;;;;5080759;28;20621;-68
2023/12/12 04:40:02;;;;;;;14.80;4.45;;;;;;;;;;5083668;28;20257;-68
2023/12/12 04:42:28;;;;;;;6.60;3.70;;;;;;;;;;5084049;28;20721;-68
2023/12/12 04:44:55;;;;;;;9.15;4.25;;;;;;;;;;5081557;28;20285;-68
2023/12/12 04:47:21;;;;;;;9.27;4.45;;;;;;;;;;5080638;28;20250;-68
2023/12/12 04:49:47;;;;;;;18.77;10.02;;;;;;;;;;5081705;28;20216;-68
2023/12/12 04:52:13;;;;;;;26.67;15.05;;;;;;;;;;5084096;28;20196;-68
2023/12/12 04:54:40;;;;;;;13.30;7.05;;;;;;;;;;5084070;28;20204;-68
2023/12/12 04:57:07;;;;;;;12.48;6.22;;;;;;;;;;5080333;28;20200;-68
2023/12/12 04:59:34;;;;;;;11.88;5.85;;;;;;;;;;5080522;28;20204;-68
2023/12/12 05:02:00;;;;;;;7.50;4.35;;;;;;;;;;5082910;28;20716;-68
2023/12/12 05:04:26;;;;;;;9.82;4.80;;;;;;;;;;5083934;28;20199;-68
2023/12/12 05:06:52;;;;;;;10.00;4.28;;;;;;;;;;5082104;28;20200;-68
2023/12/12 05:09:18;;;;;;;9.20;3.58;;;;;;;;;;5080162;28;20219;-68
2023/12/12 05:11:45;;;;;;;6.53;3.67;;;;;;;;;;5080616;28;20200;-68
2023/12/12 05:14:14;;;;;;;5.22;2.80;;;;;;;;;;5083637;28;20248;-68
2023/12/12 05:16:40;;;;;;;5.30;2.70;;;;;;;;;;5083544;28;20326;-68
2023/12/12 05:19:06;;;;;;;4.43;2.65;;;;;;;;;;5080293;28;20197;-68
2023/12/12 05:21:33;;;;;;;5.40;3.00;;;;;;;;;;5080007;28;20204;-68
2023/12/12 05:24:00;;;;;;;6.30;2.95;;;;;;;;;;5082574;28;20291;-68
2023/12/12 05:26:27;;;;;;;13.05;3.47;;;;;;;;;;5083557;28;20932;-68
2023/12/12 05:28:53;;;;;;;11.50;3.45;;;;;;;;;;5081780;28;20733;-68
2023/12/12 05:31:24;;;;;;;4.47;2.95;;;;;;;;;;5076790;28;20208;-68
2023/12/12 05:33:50;;;;;;;5.30;3.00;;;;;;;;;;5082379;28;20200;-68
2023/12/12 05:36:16;;;;;;;5.63;2.60;;;;;;;;;;5080005;28;20274;-68
2023/12/12 05:38:42;;;;;;;3.30;3.00;;;;;;;;;;5079919;28;20201;-68
2023/12/12 05:41:09;;;;;;;3.90;2.67;;;;;;;;;;5071618;28;20192;-68
2023/12/12 05:43:35;;;;;;;4.78;3.10;;;;;;;;;;5079565;28;20197;-68
2023/12/12 05:46:02;;;;;;;7.68;3.50;;;;;;;;;;5081860;28;20258;-68
2023/12/12 05:48:30;;;;;;;6.30;3.08;;;;;;;;;;5083583;28;20577;-68
2023/12/12 05:50:56;;;;;;;8.73;3.53;;;;;;;;;;5081805;28;20620;-68
2023/12/12 05:53:22;;;;;;;5.45;3.22;;;;;;;;;;5079748;28;20553;-68
2023/12/12 05:55:49;;;;;;;4.07;3.20;;;;;;;;;;5079945;28;20773;-68
2023/12/12 05:58:15;;;;;;;7.03;3.40;;;;;;;;;;5083397;28;20587;-68
2023/12/12 06:00:41;;;;;;;7.30;3.85;;;;;;;;;;5083123;28;20568;-68
2023/12/12 06:03:08;;;;;;;11.63;3.65;;;;;;;;;;5079856;28;20621;-68
2023/12/12 06:05:35;;;;;;;10.60;5.05;;;;;;;;;;5079703;28;20307;-68
2023/12/12 06:08:02;;;;;;;12.95;5.25;;;;;;;;;;5081720;28;20234;-69
2023/12/12 06:10:28;;;;;;;12.65;5.07;;;;;;;;;;5083118;28;20302;-68
2023/12/12 06:12:54;;;;;;;8.63;4.85;;;;;;;;;;5081671;28;20249;-68
2023/12/12 06:15:20;;;;;;;14.65;4.72;;;;;;;;;;5079733;28;20224;-68
2023/12/12 06:17:47;;;;;;;10.88;4.82;;;;;;;;;;5079700;28;20204;-68
2023/12/12 06:20:14;;;;;;;12.52;4.43;;;;;;;;;;5071507;28;20208;-68
2023/12/12 06:22:41;;;;;;;7.25;4.50;;;;;;;;;;5079418;28;20204;-68
2023/12/12 06:25:08;;;;;;;8.85;4.22;;;;;;;;;;5081885;28;20224;-68
2023/12/12 06:27:34;;;;;;;7.63;4.45;;;;;;;;;;5082887;28;20222;-68
2023/12/12 06:30:01;;;;;;;11.30;4.10;;;;;;;;;;5081006;28;20699;-68
2023/12/12 06:32:27;;;;;;;11.32;4.22;;;;;;;;;;5079342;28;20192;-68
2023/12/12 06:34:53;;;;;;;9.07;4.35;;;;;;;;;;5079758;28;20594;-68
2023/12/12 06:37:20;;;;;;;11.43;4.95;;;;;;;;;;5083187;28;20196;-68
2023/12/12 06:39:47;;;;;;;9.25;4.60;;;;;;;;;;5082819;28;20353;-68
2023/12/12 06:42:14;;;;;;;9.40;5.05;;;;;;;;;;5078901;28;20201;-68
2023/12/12 06:44:40;;;;;;;13.27;5.05;;;;;;;;;;5079741;28;20287;-61
2023/12/12 06:47:06;;;;;;;9.18;5.15;;;;;;;;;;5085547;28;20258;-60
2023/12/12 06:49:33;;;;;;;9.85;4.60;;;;;;;;;;5088057;28;20212;-59
2023/12/12 06:52:01;;;;;;;10.35;4.88;;;;;;;;;;5088217;28;20210;-60
2023/12/12 06:54:27;;;;;;;8.82;4.78;;;;;;;;;;5086532;28;20196;-59
2023/12/12 06:56:55;;;;;;;10.90;4.78;;;;;;;;;;5094486;28;20545;-60
2023/12/12 06:59:21;;;;;;;11.25;5.25;;;;;;;;;;5086333;28;20604;-60
2023/12/12 07:01:47;;;;;;;13.38;4.50;;;;;;;;;;5086079;28;20204;-60
2023/12/12 07:04:14;;;;;;;12.05;5.20;;;;;;;;;;5088816;28;20679;-61
2023/12/12 07:06:41;;;;;;;14.55;5.72;;;;;;;;;;5083000;28;20228;-60
2023/12/12 07:09:10;;;;;;;11.13;5.30;;;;;;;;;;5087774;28;20228;-59
2023/12/12 07:11:37;;;;;;;12.10;5.90;;;;;;;;;;5089282;28;20199;-59
2023/12/12 07:14:04;;;;;;;10.68;5.60;;;;;;;;;;5088013;28;20207;-59
2023/12/12 07:16:31;;;;;;;16.00;6.63;;;;;;;;;;5086189;28;20216;-60
2023/12/12 07:18:58;;;;;;;14.15;6.32;;;;;;;;;;5086383;28;20665;-59
2023/12/12 07:21:24;;;;;;;13.02;5.38;;;;;;;;;;5089171;28;20238;-61
2023/12/12 07:23:51;;;;;;;9.70;5.03;;;;;;;;;;5089176;28;20203;-59
2023/12/12 07:26:18;;;;;;;14.60;5.82;;;;;;;;;;5086180;28;20589;-59
2023/12/12 07:28:44;;;;;;;14.93;5.50;;;;;;;;;;5086016;28;20326;-59
2023/12/12 07:31:12;;;;;;;17.75;5.47;;;;;;;;;;5087784;28;20299;-59
2023/12/12 07:33:39;;;;;;;13.27;5.60;;;;;;;;;;5088538;28;20208;-60
2023/12/12 07:36:06;;;;;;;9.45;5.22;;;;;;;;;;5080512;28;20242;-60
2023/12/12 07:38:32;;;;;;;13.18;5.25;;;;;;;;;;5089337;28;20199;-60
2023/12/12 07:41:00;;;;;;;10.88;5.25;;;;;;;;;;5088290;28;20686;-60
2023/12/12 07:43:26;;;;;;;11.13;5.32;;;;;;;;;;5086570;28;20687;-60
2023/12/12 07:45:53;;;;;;;13.15;6.20;;;;;;;;;;5085234;28;20228;-60
2023/12/12 07:48:20;;;;;;;13.23;6.07;;;;;;;;;;5097838;28;20252;-60
2023/12/12 07:50:46;;;;;;;12.82;6.07;;;;;;;;;;5088860;28;20216;-59
2023/12/12 07:53:13;;;;;;;15.40;6.60;;;;;;;;;;5086100;28;20218;-60
2023/12/12 07:55:39;;;;;;;15.80;7.40;;;;;;;;;;5085463;28;20290;-60
2023/12/12 07:58:05;;;;;;;13.50;7.53;;;;;;;;;;5086672;28;20639;-60
2023/12/12 08:00:31;;;;;;;16.60;8.70;;;;;;;;;;5091540;28;20189;-60
2023/12/12 08:02:58;;;;;;;16.63;8.68;;;;;;;;;;5086214;28;20579;-59
2023/12/12 08:05:26;;;;;;;11.18;7.43;;;;;;;;;;5089313;28;20222;-60
2023/12/12 08:07:53;;;;;;;13.27;7.72;;;;;;;;;;5089345;28;20199;-60
2023/12/12 08:10:19;;;;;;;13.73;7.63;;;;;;;;;;5085474;28;20259;-59
2023/12/12 08:12:45;;;;;;;14.18;7.22;;;;;;;;;;5085785;28;20196;-60
2023/12/12 08:15:11;;;;;;;12.75;6.55;;;;;;;;;;5087157;28;20220;-60
2023/12/12 08:17:38;;;;;;;11.43;6.50;;;;;;;;;;5089001;28;20196;-60
2023/12/12 08:20:05;;;;;;;11.25;5.88;;;;;;;;;;5088758;28;20261;-60
2023/12/12 08:22:32;;;;;;;11.20;6.05;;;;;;;;;;5088815;28;20195;-60
2023/12/12 08:25:00;;;;;;;13.18;6.10;;;;;;;;;;5089396;28;20228;-60
2023/12/12 08:27:27;;;;;;;10.65;5.82;;;;;;;;;;5077761;28;20216;-60
2023/12/12 08:29:53;;;;;;;13.77;7.25;;;;;;;;;;5085557;28;20227;-60
2023/12/12 08:32:19;;;;;;;14.90;9.35;;;;;;;;;;5084930;28;20208;-60
2023/12/12 08:34:46;;;;;;;16.40;8.70;;;;;;;;;;5084398;28;20220;-60
2023/12/12 08:37:12;;;;;;;13.55;7.55;;;;;;;;;;5086984;28;20211;-60
2023/12/12 08:39:40;;;;;;;14.15;6.60;;;;;;;;;;5088871;28;20192;-60
2023/12/12 08:42:06;;;;;;;9.07;5.88;;;;;;;;;;5088562;28;20245;-60
2023/12/12 08:44:32;;;;;;;9.13;5.20;;;;;;;;;;5086331;28;20200;-61
2023/12/12 08:46:58;;;;;;;12.90;5.97;;;;;;;;;;5086688;28;20205;-61
2023/12/12 08:49:25;;;;;;;9.32;5.70;;;;;;;;;;5090304;28;20210;-61
2023/12/12 08:51:51;;;;;;;8.98;4.82;;;;;;;;;;5072678;28;20515;-61
2023/12/12 08:54:18;;;;;;;13.30;5.07;;;;;;;;;;5082154;28;20207;-61
2023/12/12 08:56:52;;;;;;;10.50;5.18;;;;;;;;;;5077311;28;20236;-61
2023/12/12 08:59:21;;;;;;;11.23;5.70;;;;;;;;;;5077302;28;20655;-61
2023/12/12 09:01:47;;;;;;;10.15;4.95;;;;;;;;;;5077428;28;20684;-61
2023/12/12 09:04:16;;;;;;;13.77;5.75;;;;;;;;;;5079658;28;20212;-61
2023/12/12 09:06:44;;;;;;;8.52;5.47;;;;;;;;;;5081163;28;20449;-61
2023/12/12 09:09:11;;;;;;;11.02;5.40;;;;;;;;;;5079886;28;20784;-60
2023/12/12 09:11:37;;;;;;;8.25;5.75;;;;;;;;;;5080354;28;20211;-61
2023/12/12 09:14:05;;;;;;;13.20;7.13;;;;;;;;;;5080758;28;20207;-61
2023/12/12 09:16:32;;;;;;;10.27;6.10;;;;;;;;;;5077830;28;20269;-60
2023/12/12 09:18:58;;;;;;;13.52;7.75;;;;;;;;;;5077333;28;20302;-60
2023/12/12 09:21:24;;;;;;;18.27;7.80;;;;;;;;;;5080480;28;20204;-60
2023/12/12 09:23:51;;;;;;;15.32;7.85;;;;;;;;;;5080857;28;20229;-61
2023/12/12 09:26:18;;;;;;;14.02;7.13;;;;;;;;;;5080589;28;20232;-60
2023/12/12 09:28:45;;;;;;;15.75;7.03;;;;;;;;;;5081021;28;20234;-60
2023/12/12 09:31:12;;;;;;;14.13;7.57;;;;;;;;;;5080234;28;20700;-61
2023/12/12 09:33:39;;;;;;;16.50;6.55;;;;;;;;;;5077984;28;20677;-61
2023/12/12 09:36:06;;;;;;;11.00;6.47;;;;;;;;;;5077282;28;20251;-61
2023/12/12 09:38:32;;;;;;;15.23;6.65;;;;;;;;;;5068148;28;20304;-61
2023/12/12 09:40:58;;;;;;;13.70;6.80;;;;;;;;;;5076238;28;20208;-60
2023/12/12 09:43:26;;;;;;;10.15;6.13;;;;;;;;;;5078108;28;20750;-61
2023/12/12 09:45:56;;;;;;;12.20;6.32;;;;;;;;;;5075190;28;20772;-60
2023/12/12 09:48:24;;;;;;;12.50;6.20;;;;;;;;;;5078141;28;20687;-60
2023/12/12 09:50:51;;;;;;;8.77;6.15;;;;;;;;;;5081963;28;20270;-61
2023/12/12 09:53:19;;;;;;;11.05;5.50;;;;;;;;;;5076725;28;20330;-60
2023/12/12 09:55:46;;;;;;;11.48;5.25;;;;;;;;;;5078926;28;20792;-60
2023/12/12 09:58:12;;;;;;;11.82;5.65;;;;;;;;;;5078510;28;20640;-60
2023/12/12 10:00:38;;;;;;;7.50;4.97;;;;;;;;;;5076053;28;20223;-60
2023/12/12 10:03:05;;;;;;;10.00;5.30;;;;;;;;;;5076015;28;20204;-61
2023/12/12 10:05:33;;;;;;;11.45;6.05;;;;;;;;;;5082090;28;20227;-62
2023/12/12 10:08:00;;;;;;;10.18;5.20;;;;;;;;;;5082813;28;20207;-63
2023/12/12 10:10:27;;;;;;;9.63;5.07;;;;;;;;;;5078521;28;20711;-63
2023/12/12 10:12:53;;;;;;;8.85;4.70;;;;;;;;;;5078899;28;20212;-64
2023/12/12 10:15:23;;;;;;;9.80;4.80;;;;;;;;;;5080878;28;20231;-64
2023/12/12 10:17:49;;;;;;;6.75;4.55;;;;;;;;;;5078300;28;20230;-63
2023/12/12 10:20:25;;;;;;;5.40;4.45;;;;;;;;;;5084115;28;20207;-62
2023/12/12 10:22:52;;;;;;;7.43;4.28;;;;;;;;;;5085003;28;20203;-60
2023/12/12 10:25:18;;;;;;;6.32;4.18;;;;;;;;;;5088085;28;20601;-60
2023/12/12 10:27:45;;;;;;;15.38;5.10;;;;;;;;;;5086875;28;20627;-60
2023/12/12 10:30:12;;;;;;;8.43;4.38;;;;;;;;;;5085577;28;20196;-60
2023/12/12 10:32:39;;;;;;;9.38;5.10;;;;;;;;;;5089681;28;20241;-60
2023/12/12 10:35:05;;;;;;;8.82;5.82;;;;;;;;;;5089567;28;20219;-60
2023/12/12 10:37:31;;;;;;;13.35;6.28;;;;;;;;;;5089108;28;20299;-60
2023/12/12 10:40:11;;;;;;;9.57;6.05;;;;;;;;;;5089051;28;20200;-60
2023/12/12 10:42:38;;;;;;;10.73;6.07;;;;;;;;;;5077830;28;20378;-60
2023/12/12 10:45:07;;;;;;;10.65;5.70;;;;;;;;;;5086650;28;20220;-60
2023/12/12 10:47:33;;;;;;;10.82;6.28;;;;;;;;;;5087483;28;20254;-60
2023/12/12 10:50:01;;;;;;;13.43;6.03;;;;;;;;;;5087173;28;20612;-60
2023/12/12 10:52:28;;;;;;;9.95;6.13;;;;;;;;;;5088034;28;20204;-60
2023/12/12 10:54:55;;;;;;;8.73;5.57;;;;;;;;;;5087797;28;20361;-60
2023/12/12 10:57:22;;;;;;;12.23;5.28;;;;;;;;;;5089286;28;20633;-60
2023/12/12 10:59:49;;;;;;;10.77;5.82;;;;;;;;;;5090866;28;20200;-60
2023/12/12 11:02:15;;;;;;;9.93;5.53;;;;;;;;;;5090491;28;20204;-60
2023/12/12 11:04:42;;;;;;;6.50;5.03;;;;;;;;;;5087517;28;20285;-59
2023/12/12 11:07:08;;;;;;;7.32;5.05;;;;;;;;;;5087735;28;20764;-60
2023/12/12 11:09:34;;;;;;;14.35;6.18;;;;;;;;;;5089971;28;20204;-60
2023/12/12 11:12:02;;;;;;;8.75;5.75;;;;;;;;;;5090187;28;20272;-60
2023/12/12 11:14:30;;;;;;;8.98;5.65;;;;;;;;;;5088892;28;20196;-60
2023/12/12 11:16:58;;;;;;;9.23;5.53;;;;;;;;;;5087131;28;20406;-60
2023/12/12 11:19:25;;;;;;;8.80;4.65;;;;;;;;;;5088293;28;20203;-60
2023/12/12 11:21:52;;;;;;;7.10;4.53;;;;;;;;;;5090031;28;20191;-60
2023/12/12 11:24:18;;;;;;;4.97;4.20;;;;;;;;;;5089570;28;20249;-60
2023/12/12 11:26:46;;;;;;;7.43;4.20;;;;;;;;;;5086637;28;20236;-60
2023/12/12 11:29:13;;;;;;;8.75;4.40;;;;;;;;;;5087198;28;20196;-60
2023/12/12 11:31:56;;;;;;;5.78;4.05;;;;;;;;;;5089789;28;20344;-60
2023/12/12 11:34:24;;;;;;;6.53;4.40;;;;;;;;;;5089022;28;20721;-60
2023/12/12 11:36:54;;;;;;;10.35;4.22;;;;;;;;;;5086642;28;20200;-60
2023/12/12 11:39:34;;;;;;;5.28;3.55;;;;;;;;;;5087325;28;20231;-60
2023/12/12 11:42:03;;;;;;;6.05;4.07;;;;;;;;;;5090756;28;20206;-60
2023/12/12 11:44:39;;;;;;;4.45;4.03;;;;;;;;;;5088598;28;20612;-60
2023/12/12 11:47:09;;;;;;;4.63;3.65;;;;;;;;;;5086967;28;20215;-59
2023/12/12 11:49:36;;;;;;;7.25;3.67;;;;;;;;;;5088722;28;20205;-60
2023/12/12 11:52:02;;;;;;;3.10;2.80;;;;;;;;;;5089311;28;20228;-60
2023/12/12 11:54:28;;;;;;;3.33;3.03;;;;;;;;;;5088993;28;20733;-60
2023/12/12 11:56:56;;;;;;;2.80;2.70;;;;;;;;;;5087477;28;20626;-60
2023/12/12 11:59:23;;;;;;;3.25;2.95;;;;;;;;;;5087938;28;20220;-60
2023/12/12 12:01:49;;;;;;;4.10;2.88;;;;;;;;;;5090108;28;20195;-60
2023/12/12 12:04:17;;;;;;;3.05;2.75;;;;;;;;;;5075458;28;20209;-64
2023/12/12 12:06:43;;;;;;;5.30;4.47;;;;;;;;;;5070733;28;20239;-64
2023/12/12 12:09:10;;;;;;;10.75;5.88;;;;;;;;;;5067179;28;20332;-64
2023/12/12 12:11:36;;;;;;;9.23;6.10;;;;;;;;;;5057182;28;20236;-63
2023/12/12 12:14:03;;;;;;;5.15;4.65;;;;;;;;;;5066715;28;20324;-63
2023/12/12 12:16:29;;;;;;;5.47;3.75;;;;;;;;;;5061533;28;20221;-63
2023/12/12 12:18:55;;;;;;;4.00;3.45;;;;;;;;;;5067801;28;20209;-62
2023/12/12 12:21:24;;;;;;;4.47;3.55;;;;;;;;;;5070205;28;20197;-63
2023/12/12 12:23:51;;;;;;;3.00;2.80;;;;;;;;;;5058798;28;20211;-62
2023/12/12 12:26:17;;;;;;;5.97;3.03;;;;;;;;;;5058380;28;20232;-63
2023/12/12 12:28:43;;;;;;;2.72;2.58;;;;;;;;;;5066362;28;20209;-62
2023/12/12 12:31:10;;;;;;;3.75;3.20;;;;;;;;;;5073663;28;20221;-62
2023/12/12 12:33:37;;;;;;;4.38;2.70;;;;;;;;;;5059532;28;20236;-63
2023/12/12 12:36:04;;;;;;;3.85;3.17;;;;;;;;;;5064505;28;20229;-62
2023/12/12 12:38:32;;;;;;;3.45;3.17;;;;;;;;;;5084330;28;20255;-62
2023/12/12 12:40:58;;;;;;;3.53;3.28;;;;;;;;;;5065708;28;20246;-62
2023/12/12 12:43:25;;;;;;;5.55;3.70;;;;;;;;;;5067849;28;20213;-62
2023/12/12 12:45:52;;;;;;;7.40;4.40;;;;;;;;;;5059641;28;20320;-62
2023/12/12 12:48:18;;;;;;;4.60;4.13;;;;;;;;;;5076611;28;20223;-62
2023/12/12 12:50:45;;;;;;;5.50;4.93;;;;;;;;;;5076301;28;20235;-62
2023/12/12 12:53:12;;;;;;;8.38;5.70;;;;;;;;;;5058157;28;20201;-62
2023/12/12 12:55:42;;;;;;;13.20;6.75;;;;;;;;;;5063043;28;20229;-62
2023/12/12 12:58:09;;;;;;;10.30;6.80;;;;;;;;;;5061699;28;20200;-61
2023/12/12 13:00:35;;;;;;;8.15;6.60;;;;;;;;;;5056015;28;20209;-61
2023/12/12 13:03:03;;;;;;;11.02;6.70;;;;;;;;;;5067349;28;20201;-61
2023/12/12 13:05:29;;;;;;;8.55;6.20;;;;;;;;;;5059821;28;20709;-61
2023/12/12 13:07:56;;;;;;;11.13;6.97;;;;;;;;;;5058828;28;20763;-61
2023/12/12 13:10:24;;;;;;;10.98;6.68;;;;;;;;;;5067131;28;20595;-60
2023/12/12 13:12:51;;;;;;;10.75;6.53;;;;;;;;;;5051158;28;20217;-57
2023/12/12 13:15:19;;;;;;;8.10;5.95;;;;;;;;;;5066994;28;20569;-60
2023/12/12 13:17:45;;;;;;;15.48;6.60;;;;;;;;;;5069737;28;20226;-62
2023/12/12 13:20:11;;;;;;;12.38;6.57;;;;;;;;;;5055691;28;20209;-59
2023/12/12 13:22:38;;;;;;;10.30;6.28;;;;;;;;;;5074163;28;20231;-61
2023/12/12 13:25:06;;;;;;;8.10;6.47;;;;;;;;;;5072630;28;20279;-63
2023/12/12 13:27:33;;;;;;;11.02;6.30;;;;;;;;;;5058608;28;20205;-61
2023/12/12 13:30:00;;;;;;;9.05;6.30;;;;;;;;;;5070561;28;20235;-62
2023/12/12 13:32:27;;;;;;;11.70;8.55;;;;;;;;;;5063613;28;20228;-63
2023/12/12 13:34:54;;;;;;;12.93;9.60;;;;;;;;;;5052172;28;20284;-63
2023/12/12 13:37:20;;;;;;;26.30;13.23;;;;;;;;;;5063889;28;20236;-62
2023/12/12 13:39:46;;;;;;;16.63;8.68;;;;;;;;;;5062303;28;20209;-63
2023/12/12 13:42:12;;;;;;;17.67;8.82;;;;;;;;;;5052308;28;20201;-61
2023/12/12 13:44:39;;;;;;;8.88;5.60;;;;;;;;;;5054363;28;20211;-62
2023/12/12 13:47:06;;;;;;;4.05;3.55;;;;;;;;;;5075112;28;20205;-63
2023/12/12 13:49:33;;;;;;;3.80;3.03;;;;;;;;;;5071996;28;20246;-60
2023/12/12 13:52:01;;;;;;;1.73;1.60;;;;;;;;;;5078345;28;20235;-60
2023/12/12 13:54:27;;;;;;;3.10;2.75;;;;;;;;;;5078503;28;20228;-60
2023/12/12 13:56:53;;;;;;;2.70;2.33;;;;;;;;;;5068396;28;20212;-63
2023/12/12 13:59:19;;;;;;;2.78;2.58;;;;;;;;;;5068103;28;20201;-64
2023/12/12 14:01:46;;;;;;;2.47;1.50;;;;;;;;;;5076751;28;20212;-63
2023/12/12 14:04:13;;;;;;;4.30;2.22;;;;;;;;;;5084576;28;20241;-60
2023/12/12 14:06:40;;;;;;;2.03;1.20;;;;;;;;;;5071150;28;20230;-60
2023/12/12 14:09:09;;;;;;;1.20;1.10;;;;;;;;;;5079648;28;20333;-60
2023/12/12 14:11:35;;;;;;;1.90;1.52;;;;;;;;;;5093637;28;20302;-60
2023/12/12 14:14:02;;;;;;;1.20;1.20;;;;;;;;;;5084038;28;20200;-60
2023/12/12 14:16:28;;;;;;;1.27;1.27;;;;;;;;;;5084094;28;20220;-60
2023/12/12 14:18:55;;;;;;;2.40;2.30;;;;;;;;;;5087745;28;20582;-60
2023/12/12 14:21:22;;;;;;;5.05;3.15;;;;;;;;;;5088220;28;20201;-60
2023/12/12 14:23:49;;;;;;;3.65;3.30;;;;;;;;;;5085894;28;20195;-58
2023/12/12 14:26:16;;;;;;;6.80;4.13;;;;;;;;;;5084751;28;20224;-59
2023/12/12 14:28:44;;;;;;;11.65;6.00;;;;;;;;;;5087866;28;20207;-60
2023/12/12 14:31:12;;;;;;;9.43;7.20;;;;;;;;;;5084184;28;20716;-59
2023/12/12 14:33:38;;;;;;;9.25;6.35;;;;;;;;;;5087109;28;20287;-59
2023/12/12 14:36:04;;;;;;;10.18;5.75;;;;;;;;;;5089548;28;20261;-59